createdAt,value
2023-05-21T00:00:06.256Z,648.00
2023-05-21T00:01:06.265Z,647.00
2023-05-21T00:02:06.296Z,646.00
2023-05-21T00:03:06.449Z,643.00
2023-05-21T00:04:06.366Z,646.00
2023-05-21T00:05:06.953Z,642.00
2023-05-21T00:06:06.520Z,645.00
2023-05-21T00:07:06.505Z,642.00
2023-05-21T00:08:06.557Z,644.00
2023-05-21T00:09:06.609Z,642.00
2023-05-21T00:10:06.649Z,649.00
2023-05-21T00:11:07.665Z,649.00
2023-05-21T00:12:06.682Z,649.00
2023-05-21T00:13:06.698Z,644.00
2023-05-21T00:14:06.706Z,646.00
2023-05-21T00:15:06.739Z,644.00
2023-05-21T00:16:07.494Z,651.00
2023-05-21T00:17:06.765Z,649.00
2023-05-21T00:18:06.788Z,646.00
2023-05-21T00:19:07.528Z,649.00
2023-05-21T00:20:06.805Z,645.00
2023-05-21T00:21:06.978Z,646.00
2023-05-21T00:22:06.856Z,644.00
2023-05-21T00:23:06.861Z,650.00
2023-05-21T00:24:06.876Z,647.00
2023-05-21T00:25:06.895Z,652.00
2023-05-21T00:26:06.929Z,644.00
2023-05-21T00:27:06.958Z,646.00
2023-05-21T00:28:07.014Z,643.00
2023-05-21T00:29:07.054Z,644.00
2023-05-21T00:30:07.137Z,648.00
2023-05-21T00:31:09.001Z,641.00
2023-05-21T00:32:07.363Z,647.00
2023-05-21T00:33:07.343Z,642.00
2023-05-21T00:34:07.335Z,652.00
2023-05-21T00:35:07.961Z,643.00
2023-05-21T00:36:07.425Z,645.00
2023-05-21T00:37:07.490Z,646.00
2023-05-21T00:38:07.542Z,643.00
2023-05-21T00:39:07.581Z,646.00
2023-05-21T00:40:07.674Z,648.00
2023-05-21T00:41:07.690Z,645.00
2023-05-21T00:42:07.747Z,646.00
2023-05-21T00:43:07.807Z,644.00
2023-05-21T00:44:07.885Z,649.00
2023-05-21T00:45:07.957Z,643.00
2023-05-21T00:46:08.045Z,645.00
2023-05-21T00:47:08.024Z,647.00
2023-05-21T00:48:08.108Z,645.00
2023-05-21T00:49:08.123Z,642.00
2023-05-21T00:50:08.192Z,647.00
2023-05-21T00:51:08.243Z,646.00
2023-05-21T00:52:08.299Z,646.00
2023-05-21T00:53:08.354Z,645.00
2023-05-21T00:54:08.429Z,647.00
2023-05-21T00:55:08.483Z,644.00
2023-05-21T00:56:08.558Z,644.00
2023-05-21T00:57:08.576Z,649.00
2023-05-21T00:58:08.625Z,643.00
2023-05-21T00:59:08.692Z,641.00
2023-05-21T01:00:08.773Z,646.00
2023-05-21T01:01:08.810Z,646.00
2023-05-21T01:02:08.903Z,643.00
2023-05-21T01:03:08.953Z,644.00
2023-05-21T01:04:08.958Z,646.00
2023-05-21T01:05:09.023Z,644.00
2023-05-21T01:06:09.081Z,644.00
2023-05-21T01:07:09.120Z,648.00
2023-05-21T01:08:11.000Z,645.00
2023-05-21T01:09:09.252Z,651.00
2023-05-21T01:10:09.283Z,647.00
2023-05-21T01:11:09.334Z,647.00
2023-05-21T01:12:09.389Z,645.00
2023-05-21T01:13:10.459Z,643.00
2023-05-21T01:14:09.489Z,643.00
2023-05-21T01:15:09.555Z,645.00
2023-05-21T01:16:09.589Z,644.00
2023-05-21T01:17:09.725Z,644.00
2023-05-21T01:18:09.739Z,647.00
2023-05-21T01:19:10.645Z,647.00
2023-05-21T01:20:09.811Z,645.00
2023-05-21T01:21:09.874Z,643.00
2023-05-21T01:22:09.920Z,643.00
2023-05-21T01:23:09.977Z,648.00
2023-05-21T01:24:10.498Z,649.00
2023-05-21T01:25:10.104Z,650.00
2023-05-21T01:26:10.150Z,643.00
2023-05-21T01:27:10.201Z,647.00
2023-05-21T01:28:10.945Z,646.00
2023-05-21T01:29:10.289Z,643.00
2023-05-21T01:30:10.347Z,648.00
2023-05-21T01:31:10.395Z,644.00
2023-05-21T01:32:10.462Z,645.00
2023-05-21T01:33:10.638Z,647.00
2023-05-21T01:34:10.589Z,648.00
2023-05-21T01:35:10.604Z,643.00
2023-05-21T01:36:10.657Z,648.00
2023-05-21T01:37:10.707Z,644.00
2023-05-21T01:38:10.769Z,642.00
2023-05-21T01:39:10.833Z,648.00
2023-05-21T01:40:10.910Z,647.00
2023-05-21T01:41:10.969Z,641.00
2023-05-21T01:42:10.989Z,643.00
2023-05-21T01:43:11.044Z,647.00
2023-05-21T01:44:11.103Z,642.00
2023-05-21T01:45:11.143Z,650.00
2023-05-21T01:46:11.224Z,642.00
2023-05-21T01:47:11.242Z,644.00
2023-05-21T01:48:11.290Z,642.00
2023-05-21T01:49:11.362Z,652.00
2023-05-21T01:50:12.512Z,650.00
2023-05-21T01:51:11.493Z,641.00
2023-05-21T01:52:11.470Z,646.00
2023-05-21T01:53:11.532Z,644.00
2023-05-21T01:54:11.571Z,643.00
2023-05-21T01:55:11.611Z,648.00
2023-05-21T01:56:11.653Z,645.00
2023-05-21T01:57:11.692Z,645.00
2023-05-21T01:58:11.739Z,646.00
2023-05-21T01:59:11.791Z,648.00
2023-05-21T02:00:11.856Z,645.00
2023-05-21T02:01:13.955Z,644.00
2023-05-21T02:02:12.033Z,646.00
2023-05-21T02:03:12.069Z,644.00
2023-05-21T02:04:12.124Z,645.00
2023-05-21T02:05:13.017Z,645.00
2023-05-21T02:06:12.160Z,637.00
2023-05-21T02:07:12.168Z,643.00
2023-05-21T02:08:12.879Z,650.00
2023-05-21T02:09:12.270Z,643.00
2023-05-21T02:10:12.339Z,646.00
2023-05-21T02:11:12.382Z,643.00
2023-05-21T02:12:12.438Z,645.00
2023-05-21T02:13:12.492Z,643.00
2023-05-21T02:14:12.558Z,640.00
2023-05-21T02:15:12.615Z,646.00
2023-05-21T02:16:14.540Z,645.00
2023-05-21T02:17:12.727Z,646.00
2023-05-21T02:18:12.821Z,644.00
2023-05-21T02:19:12.850Z,642.00
2023-05-21T02:20:12.890Z,640.00
2023-05-21T02:21:15.000Z,648.00
2023-05-21T02:22:12.935Z,653.00
2023-05-21T02:23:13.013Z,648.00
2023-05-21T02:24:13.051Z,644.00
2023-05-21T02:25:13.089Z,647.00
2023-05-21T02:26:13.140Z,644.00
2023-05-21T02:27:13.208Z,638.00
2023-05-21T02:28:13.257Z,647.00
2023-05-21T02:29:13.334Z,646.00
2023-05-21T02:30:13.396Z,645.00
2023-05-21T02:31:13.444Z,643.00
2023-05-21T02:32:15.476Z,649.00
2023-05-21T02:33:13.617Z,643.00
2023-05-21T02:34:13.642Z,644.00
2023-05-21T02:35:13.677Z,642.00
2023-05-21T02:36:13.727Z,651.00
2023-05-21T02:37:13.795Z,646.00
2023-05-21T02:38:13.881Z,643.00
2023-05-21T02:39:13.929Z,643.00
2023-05-21T02:40:13.984Z,645.00
2023-05-21T02:41:14.037Z,644.00
2023-05-21T02:42:14.096Z,647.00
2023-05-21T02:43:16.058Z,642.00
2023-05-21T02:44:14.207Z,644.00
2023-05-21T02:45:14.279Z,639.00
2023-05-21T02:46:14.447Z,646.00
2023-05-21T02:47:15.518Z,641.00
2023-05-21T02:48:14.566Z,643.00
2023-05-21T02:49:14.500Z,641.00
2023-05-21T02:50:14.548Z,649.00
2023-05-21T02:51:14.608Z,644.00
2023-05-21T02:52:14.642Z,645.00
2023-05-21T02:53:14.705Z,644.00
2023-05-21T02:54:15.494Z,642.00
2023-05-21T02:55:14.811Z,639.00
2023-05-21T02:56:14.853Z,644.00
2023-05-21T02:57:14.909Z,643.00
2023-05-21T02:58:14.960Z,643.00
2023-05-21T02:59:15.004Z,644.00
2023-05-21T03:00:15.063Z,645.00
2023-05-21T03:01:15.155Z,646.00
2023-05-21T03:02:15.233Z,643.00
2023-05-21T03:03:15.298Z,642.00
2023-05-21T03:04:15.287Z,644.00
2023-05-21T03:05:15.336Z,642.00
2023-05-21T03:06:15.389Z,642.00
2023-05-21T03:07:15.458Z,642.00
2023-05-21T03:08:15.505Z,647.00
2023-05-21T03:09:17.562Z,639.00
2023-05-21T03:10:15.645Z,640.00
2023-05-21T03:11:15.660Z,644.00
2023-05-21T03:12:15.726Z,648.00
2023-05-21T03:13:15.787Z,647.00
2023-05-21T03:14:15.822Z,642.00
2023-05-21T03:15:17.011Z,646.00
2023-05-21T03:16:15.956Z,643.00
2023-05-21T03:17:16.007Z,648.00
2023-05-21T03:18:16.069Z,637.00
2023-05-21T03:19:16.154Z,639.00
2023-05-21T03:20:16.199Z,646.00
2023-05-21T03:21:16.230Z,646.00
2023-05-21T03:22:16.303Z,642.00
2023-05-21T03:23:16.794Z,640.00
2023-05-21T03:24:16.433Z,642.00
2023-05-21T03:25:16.462Z,640.00
2023-05-21T03:26:16.529Z,646.00
2023-05-21T03:27:16.586Z,641.00
2023-05-21T03:28:16.643Z,641.00
2023-05-21T03:29:16.704Z,642.00
2023-05-21T03:30:16.783Z,642.00
2023-05-21T03:31:16.828Z,638.00
2023-05-21T03:32:16.949Z,647.00
2023-05-21T03:33:16.948Z,645.00
2023-05-21T03:34:17.005Z,646.00
2023-05-21T03:35:18.057Z,648.00
2023-05-21T03:36:17.096Z,643.00
2023-05-21T03:37:17.158Z,645.00
2023-05-21T03:38:17.219Z,642.00
2023-05-21T03:39:17.262Z,644.00
2023-05-21T03:40:17.331Z,638.00
2023-05-21T03:41:17.377Z,647.00
2023-05-21T03:42:18.555Z,645.00
2023-05-21T03:43:17.515Z,647.00
2023-05-21T03:44:17.571Z,649.00
2023-05-21T03:45:17.664Z,640.00
2023-05-21T03:46:17.754Z,640.00
2023-05-21T03:47:17.710Z,642.00
2023-05-21T03:48:17.774Z,646.00
2023-05-21T03:49:17.839Z,644.00
2023-05-21T03:50:17.905Z,643.00
2023-05-21T03:51:17.990Z,645.00
2023-05-21T03:52:18.045Z,641.00
2023-05-21T03:53:18.119Z,642.00
2023-05-21T03:54:19.065Z,642.00
2023-05-21T03:55:18.307Z,639.00
2023-05-21T03:56:18.390Z,644.00
2023-05-21T03:57:18.348Z,640.00
2023-05-21T03:58:18.409Z,636.00
2023-05-21T03:59:18.480Z,639.00
2023-05-21T04:00:18.515Z,645.00
2023-05-21T04:01:18.579Z,640.00
2023-05-21T04:02:18.740Z,645.00
2023-05-21T04:03:18.876Z,644.00
2023-05-21T04:04:18.795Z,640.00
2023-05-21T04:05:18.824Z,638.00
2023-05-21T04:06:18.884Z,645.00
2023-05-21T04:07:18.915Z,640.00
2023-05-21T04:08:18.993Z,639.00
2023-05-21T04:09:19.032Z,646.00
2023-05-21T04:10:20.015Z,647.00
2023-05-21T04:11:19.204Z,644.00
2023-05-21T04:12:19.218Z,645.00
2023-05-21T04:13:19.261Z,642.00
2023-05-21T04:14:19.304Z,643.00
2023-05-21T04:15:19.366Z,642.00
2023-05-21T04:16:19.612Z,640.00
2023-05-21T04:17:19.489Z,640.00
2023-05-21T04:18:19.541Z,638.00
2023-05-21T04:19:19.630Z,641.00
2023-05-21T04:20:19.670Z,644.00
2023-05-21T04:21:19.707Z,638.00
2023-05-21T04:22:19.780Z,643.00
2023-05-21T04:23:19.838Z,640.00
2023-05-21T04:24:19.899Z,641.00
2023-05-21T04:25:19.961Z,637.00
2023-05-21T04:26:20.029Z,641.00
2023-05-21T04:27:20.076Z,638.00
2023-05-21T04:28:20.383Z,641.00
2023-05-21T04:29:20.182Z,638.00
2023-05-21T04:30:20.273Z,643.00
2023-05-21T04:31:20.929Z,633.00
2023-05-21T04:33:20.498Z,637.00
2023-05-21T04:34:20.473Z,641.00
2023-05-21T04:35:20.525Z,643.00
2023-05-21T04:36:20.576Z,638.00
2023-05-21T04:37:20.632Z,639.00
2023-05-21T04:38:20.701Z,640.00
2023-05-21T04:39:20.748Z,645.00
2023-05-21T04:40:20.816Z,637.00
2023-05-21T04:41:20.878Z,637.00
2023-05-21T04:42:20.935Z,639.00
2023-05-21T04:43:20.986Z,639.00
2023-05-21T04:44:21.049Z,640.00
2023-05-21T04:45:21.130Z,637.00
2023-05-21T04:46:21.191Z,635.00
2023-05-21T04:47:21.289Z,640.00
2023-05-21T04:48:21.302Z,638.00
2023-05-21T04:49:21.355Z,638.00
2023-05-21T04:50:21.400Z,638.00
2023-05-21T04:51:21.464Z,641.00
2023-05-21T04:52:21.528Z,642.00
2023-05-21T04:53:21.588Z,639.00
2023-05-21T04:54:21.632Z,641.00
2023-05-21T04:55:21.686Z,643.00
2023-05-21T04:56:21.747Z,644.00
2023-05-21T04:57:21.803Z,636.00
2023-05-21T04:58:21.849Z,639.00
2023-05-21T04:59:21.897Z,635.00
2023-05-21T05:00:21.963Z,645.00
2023-05-21T05:01:22.166Z,643.00
2023-05-21T05:02:22.126Z,634.00
2023-05-21T05:03:22.245Z,635.00
2023-05-21T05:04:22.189Z,635.00
2023-05-21T05:05:22.543Z,636.00
2023-05-21T05:06:22.293Z,636.00
2023-05-21T05:07:22.333Z,635.00
2023-05-21T05:08:22.396Z,637.00
2023-05-21T05:09:22.465Z,636.00
2023-05-21T05:10:22.512Z,638.00
2023-05-21T05:11:22.612Z,635.00
2023-05-21T05:12:22.626Z,636.00
2023-05-21T05:13:22.694Z,637.00
2023-05-21T05:14:22.736Z,632.00
2023-05-21T05:15:22.794Z,631.00
2023-05-21T05:16:22.899Z,635.00
2023-05-21T05:17:22.956Z,636.00
2023-05-21T05:18:25.113Z,637.00
2023-05-21T05:19:23.030Z,634.00
2023-05-21T05:20:23.204Z,635.00
2023-05-21T05:21:23.128Z,639.00
2023-05-21T05:22:23.182Z,634.00
2023-05-21T05:23:23.221Z,635.00
2023-05-21T05:24:23.300Z,638.00
2023-05-21T05:25:23.350Z,642.00
2023-05-21T05:26:23.411Z,632.00
2023-05-21T05:27:24.425Z,629.00
2023-05-21T05:28:23.523Z,631.00
2023-05-21T05:29:23.583Z,636.00
2023-05-21T05:30:23.651Z,633.00
2023-05-21T05:31:23.771Z,634.00
2023-05-21T05:32:23.780Z,629.00
2023-05-21T05:33:23.786Z,630.00
2023-05-21T05:34:23.820Z,638.00
2023-05-21T05:35:24.571Z,634.00
2023-05-21T05:36:23.939Z,635.00
2023-05-21T05:37:24.004Z,631.00
2023-05-21T05:38:24.052Z,632.00
2023-05-21T05:39:24.092Z,633.00
2023-05-21T05:40:24.136Z,633.00
2023-05-21T05:41:24.577Z,633.00
2023-05-21T05:42:24.246Z,629.00
2023-05-21T05:43:24.474Z,634.00
2023-05-21T05:44:24.344Z,627.00
2023-05-21T05:45:24.392Z,627.00
2023-05-21T05:46:24.490Z,628.00
2023-05-21T05:47:24.565Z,632.00
2023-05-21T05:48:24.550Z,632.00
2023-05-21T05:49:24.587Z,624.00
2023-05-21T05:50:24.652Z,627.00
2023-05-21T05:51:24.715Z,627.00
2023-05-21T05:52:24.746Z,629.00
2023-05-21T05:53:24.780Z,631.00
2023-05-21T05:54:24.826Z,626.00
2023-05-21T05:55:24.899Z,626.00
2023-05-21T05:56:24.938Z,630.00
2023-05-21T05:57:24.973Z,631.00
2023-05-21T05:58:25.028Z,632.00
2023-05-21T05:59:25.058Z,627.00
2023-05-21T06:00:25.105Z,627.00
2023-05-21T06:01:25.160Z,623.00
2023-05-21T06:02:25.291Z,628.00
2023-05-21T06:03:25.386Z,626.00
2023-05-21T06:04:25.304Z,630.00
2023-05-21T06:05:25.408Z,626.00
2023-05-21T06:06:25.404Z,628.00
2023-05-21T06:07:25.457Z,635.00
2023-05-21T06:08:25.509Z,629.00
2023-05-21T06:09:25.560Z,625.00
2023-05-21T06:10:25.597Z,627.00
2023-05-21T06:11:25.688Z,630.00
2023-05-21T06:12:25.684Z,629.00
2023-05-21T06:13:25.717Z,625.00
2023-05-21T06:14:27.584Z,626.00
2023-05-21T06:15:25.810Z,626.00
2023-05-21T06:16:25.984Z,629.00
2023-05-21T06:17:25.978Z,625.00
2023-05-21T06:18:25.964Z,628.00
2023-05-21T06:19:26.193Z,631.00
2023-05-21T06:20:26.063Z,629.00
2023-05-21T06:21:26.123Z,628.00
2023-05-21T06:22:26.154Z,626.00
2023-05-21T06:23:26.214Z,626.00
2023-05-21T06:24:26.264Z,626.00
2023-05-21T06:25:26.315Z,628.00
2023-05-21T06:26:26.375Z,620.00
2023-05-21T06:27:26.407Z,625.00
2023-05-21T06:28:26.448Z,625.00
2023-05-21T06:29:26.494Z,628.00
2023-05-21T06:30:26.530Z,624.00
2023-05-21T06:31:28.439Z,623.00
2023-05-21T06:32:26.651Z,622.00
2023-05-21T06:33:26.728Z,625.00
2023-05-21T06:34:26.680Z,623.00
2023-05-21T06:35:26.712Z,627.00
2023-05-21T06:36:26.771Z,620.00
2023-05-21T06:37:28.636Z,625.00
2023-05-21T06:38:26.841Z,623.00
2023-05-21T06:39:26.898Z,629.00
2023-05-21T06:40:26.942Z,624.00
2023-05-21T06:41:26.978Z,628.00
2023-05-21T06:42:27.031Z,621.00
2023-05-21T06:43:27.074Z,625.00
2023-05-21T06:44:27.122Z,622.00
2023-05-21T06:45:27.154Z,620.00
2023-05-21T06:46:27.260Z,623.00
2023-05-21T06:47:27.242Z,618.00
2023-05-21T06:48:27.277Z,622.00
2023-05-21T06:49:27.304Z,620.00
2023-05-21T06:50:27.352Z,624.00
2023-05-21T06:51:27.571Z,623.00
2023-05-21T06:52:27.381Z,621.00
2023-05-21T06:53:27.405Z,623.00
2023-05-21T06:54:27.431Z,620.00
2023-05-21T06:55:27.628Z,620.00
2023-05-21T06:56:27.468Z,618.00
2023-05-21T06:57:27.494Z,617.00
2023-05-21T06:58:27.674Z,615.00
2023-05-21T06:59:27.613Z,616.00
2023-05-21T07:00:27.614Z,615.00
2023-05-21T07:01:27.630Z,611.00
2023-05-21T07:02:28.691Z,615.00
2023-05-21T07:03:27.732Z,615.00
2023-05-21T07:04:27.658Z,613.00
2023-05-21T07:05:28.113Z,617.00
2023-05-21T07:06:27.734Z,611.00
2023-05-21T07:07:27.736Z,606.00
2023-05-21T07:08:27.748Z,609.00
2023-05-21T07:09:27.772Z,607.00
2023-05-21T07:10:27.789Z,607.00
2023-05-21T07:11:27.821Z,608.00
2023-05-21T07:12:27.857Z,605.00
2023-05-21T07:13:27.899Z,606.00
2023-05-21T07:14:28.110Z,608.00
2023-05-21T07:15:27.915Z,605.00
2023-05-21T07:16:27.997Z,607.00
2023-05-21T07:17:27.993Z,603.00
2023-05-21T07:18:28.032Z,607.00
2023-05-21T07:19:28.130Z,609.00
2023-05-21T07:20:28.113Z,604.00
2023-05-21T07:21:28.153Z,602.00
2023-05-21T07:22:28.647Z,607.00
2023-05-21T07:23:28.219Z,601.00
2023-05-21T07:24:28.257Z,604.00
2023-05-21T07:25:28.278Z,601.00
2023-05-21T07:26:28.299Z,607.00
2023-05-21T07:27:28.324Z,606.00
2023-05-21T07:28:28.338Z,605.00
2023-05-21T07:29:28.362Z,599.00
2023-05-21T07:30:29.096Z,602.00
2023-05-21T07:31:28.477Z,601.00
2023-05-21T07:32:28.548Z,597.00
2023-05-21T07:33:28.442Z,599.00
2023-05-21T07:34:28.456Z,602.00
2023-05-21T07:35:28.497Z,598.00
2023-05-21T07:36:28.496Z,597.00
2023-05-21T07:37:28.541Z,600.00
2023-05-21T07:38:28.518Z,600.00
2023-05-21T07:39:28.522Z,597.00
2023-05-21T07:40:28.552Z,599.00
2023-05-21T07:41:28.982Z,598.00
2023-05-21T07:42:28.610Z,594.00
2023-05-21T07:43:28.664Z,597.00
2023-05-21T07:44:28.701Z,598.00
2023-05-21T07:45:28.740Z,599.00
2023-05-21T07:46:28.816Z,596.00
2023-05-21T07:47:29.647Z,599.00
2023-05-21T07:48:28.874Z,603.00
2023-05-21T07:49:28.926Z,594.00
2023-05-21T07:50:30.108Z,598.00
2023-05-21T07:51:29.010Z,597.00
2023-05-21T07:52:29.108Z,595.00
2023-05-21T07:53:29.119Z,593.00
2023-05-21T07:54:29.173Z,600.00
2023-05-21T07:55:29.238Z,594.00
2023-05-21T07:56:29.280Z,592.00
2023-05-21T07:57:29.646Z,596.00
2023-05-21T07:58:29.377Z,594.00
2023-05-21T07:59:29.421Z,596.00
2023-05-21T08:00:29.660Z,595.00
2023-05-21T08:01:29.550Z,595.00
2023-05-21T08:02:29.587Z,600.00
2023-05-21T08:03:29.714Z,597.00
2023-05-21T08:04:29.809Z,596.00
2023-05-21T08:05:29.735Z,595.00
2023-05-21T08:06:29.787Z,597.00
2023-05-21T08:07:29.832Z,591.00
2023-05-21T08:08:29.886Z,597.00
2023-05-21T08:09:29.924Z,594.00
2023-05-21T08:10:32.154Z,598.00
2023-05-21T08:11:30.104Z,596.00
2023-05-21T08:12:30.119Z,596.00
2023-05-21T08:13:30.189Z,594.00
2023-05-21T08:14:30.253Z,598.00
2023-05-21T08:15:30.300Z,600.00
2023-05-21T08:16:30.754Z,595.00
2023-05-21T08:17:30.421Z,597.00
2023-05-21T08:18:30.410Z,594.00
2023-05-21T08:19:30.496Z,596.00
2023-05-21T08:20:30.469Z,595.00
2023-05-21T08:21:30.528Z,595.00
2023-05-21T08:22:30.553Z,596.00
2023-05-21T08:23:30.777Z,598.00
2023-05-21T08:24:30.685Z,594.00
2023-05-21T08:25:30.683Z,599.00
2023-05-21T08:26:30.712Z,595.00
2023-05-21T08:27:30.754Z,601.00
2023-05-21T08:28:30.810Z,594.00
2023-05-21T08:29:30.819Z,597.00
2023-05-21T08:30:30.854Z,596.00
2023-05-21T08:31:30.932Z,600.00
2023-05-21T08:32:30.969Z,592.00
2023-05-21T08:33:30.989Z,594.00
2023-05-21T08:34:31.017Z,598.00
2023-05-21T08:35:31.054Z,594.00
2023-05-21T08:36:31.108Z,594.00
2023-05-21T08:37:31.155Z,597.00
2023-05-21T08:38:31.228Z,596.00
2023-05-21T08:39:31.226Z,598.00
2023-05-21T08:40:31.276Z,598.00
2023-05-21T08:41:31.333Z,598.00
2023-05-21T08:42:36.907Z,593.00
2023-05-21T08:43:32.371Z,593.00
2023-05-21T08:44:33.169Z,594.00
2023-05-21T08:45:31.390Z,595.00
2023-05-21T08:46:31.624Z,597.00
2023-05-21T08:47:31.392Z,599.00
2023-05-21T08:48:31.415Z,598.00
2023-05-21T08:49:31.378Z,594.00
2023-05-21T08:50:31.386Z,595.00
2023-05-21T08:51:31.450Z,594.00
2023-05-21T08:52:31.389Z,595.00
2023-05-21T08:53:31.402Z,596.00
2023-05-21T08:54:32.127Z,593.00
2023-05-21T08:55:31.483Z,594.00
2023-05-21T08:56:31.530Z,594.00
2023-05-21T08:57:31.718Z,595.00
2023-05-21T08:58:31.614Z,594.00
2023-05-21T08:59:31.660Z,597.00
2023-05-21T09:00:32.626Z,596.00
2023-05-21T09:01:31.795Z,592.00
2023-05-21T09:02:31.893Z,595.00
2023-05-21T09:03:31.981Z,595.00
2023-05-21T09:04:31.903Z,591.00
2023-05-21T09:05:31.911Z,597.00
2023-05-21T09:06:31.933Z,595.00
2023-05-21T09:07:31.986Z,596.00
2023-05-21T09:08:32.045Z,591.00
2023-05-21T09:09:32.081Z,592.00
2023-05-21T09:10:32.138Z,593.00
2023-05-21T09:11:32.168Z,590.00
2023-05-21T09:12:32.218Z,589.00
2023-05-21T09:13:32.263Z,591.00
2023-05-21T09:14:32.313Z,592.00
2023-05-21T09:15:32.389Z,587.00
2023-05-21T09:16:32.475Z,594.00
2023-05-21T09:17:32.567Z,589.00
2023-05-21T09:18:34.652Z,594.00
2023-05-21T09:19:32.790Z,592.00
2023-05-21T09:20:32.901Z,589.00
2023-05-21T09:21:32.806Z,594.00
2023-05-21T09:22:32.852Z,595.00
2023-05-21T09:23:32.909Z,593.00
2023-05-21T09:24:35.746Z,588.00
2023-05-21T09:25:32.981Z,597.00
2023-05-21T09:26:32.973Z,596.00
2023-05-21T09:27:32.993Z,593.00
2023-05-21T09:28:32.982Z,597.00
2023-05-21T09:29:33.104Z,594.00
2023-05-21T09:30:35.010Z,596.00
2023-05-21T09:31:33.113Z,596.00
2023-05-21T09:32:32.989Z,596.00
2023-05-21T09:33:34.737Z,597.00
2023-05-21T09:34:32.992Z,600.00
2023-05-21T09:35:32.988Z,599.00
2023-05-21T09:36:32.990Z,595.00
2023-05-21T09:37:33.063Z,597.00
2023-05-21T09:38:32.975Z,596.00
2023-05-21T09:39:32.978Z,596.00
2023-05-21T09:40:32.972Z,592.00
2023-05-21T09:41:32.980Z,595.00
2023-05-21T09:42:32.982Z,595.00
2023-05-21T09:43:32.989Z,594.00
2023-05-21T09:44:32.991Z,594.00
2023-05-21T09:45:32.995Z,597.00
2023-05-21T09:46:33.024Z,594.00
2023-05-21T09:47:33.035Z,593.00
2023-05-21T09:48:33.038Z,595.00
2023-05-21T09:49:33.105Z,590.00
2023-05-21T09:50:33.159Z,594.00
2023-05-21T09:51:33.247Z,592.00
2023-05-21T09:52:33.258Z,597.00
2023-05-21T09:53:33.334Z,593.00
2023-05-21T09:54:33.400Z,595.00
2023-05-21T09:55:33.433Z,588.00
2023-05-21T09:56:33.492Z,597.00
2023-05-21T09:57:33.524Z,591.00
2023-05-21T09:58:33.594Z,595.00
2023-05-21T09:59:34.779Z,594.00
2023-05-21T10:00:33.812Z,587.00
2023-05-21T10:01:33.884Z,592.00
2023-05-21T10:02:33.884Z,594.00
2023-05-21T10:03:33.906Z,592.00
2023-05-21T10:04:34.714Z,593.00
2023-05-21T10:05:34.048Z,595.00
2023-05-21T10:06:34.133Z,593.00
2023-05-21T10:07:34.185Z,596.00
2023-05-21T10:08:34.250Z,596.00
2023-05-21T10:09:34.331Z,592.00
2023-05-21T10:10:34.471Z,591.00
2023-05-21T10:11:34.462Z,594.00
2023-05-21T10:12:34.524Z,595.00
2023-05-21T10:13:34.567Z,594.00
2023-05-21T10:14:34.635Z,593.00
2023-05-21T10:15:34.701Z,591.00
2023-05-21T10:16:35.765Z,595.00
2023-05-21T10:17:34.835Z,594.00
2023-05-21T10:18:35.026Z,591.00
2023-05-21T10:19:35.054Z,595.00
2023-05-21T10:20:35.207Z,595.00
2023-05-21T10:21:35.080Z,597.00
2023-05-21T10:22:35.138Z,595.00
2023-05-21T10:23:35.187Z,597.00
2023-05-21T10:24:35.253Z,595.00
2023-05-21T10:25:35.406Z,597.00
2023-05-21T10:26:35.389Z,602.00
2023-05-21T10:27:35.419Z,597.00
2023-05-21T10:28:35.466Z,598.00
2023-05-21T10:29:37.159Z,596.00
2023-05-21T10:30:35.693Z,600.00
2023-05-21T10:31:35.658Z,597.00
2023-05-21T10:32:35.798Z,600.00
2023-05-21T10:33:35.897Z,596.00
2023-05-21T10:34:35.820Z,596.00
2023-05-21T10:35:35.992Z,595.00
2023-05-21T10:36:35.937Z,596.00
2023-05-21T10:37:36.009Z,597.00
2023-05-21T10:38:36.073Z,597.00
2023-05-21T10:39:36.149Z,601.00
2023-05-21T10:40:36.407Z,600.00
2023-05-21T10:41:36.273Z,598.00
2023-05-21T10:42:36.328Z,593.00
2023-05-21T10:43:36.399Z,597.00
2023-05-21T10:44:36.452Z,602.00
2023-05-21T10:45:36.556Z,600.00
2023-05-21T10:46:37.726Z,600.00
2023-05-21T10:47:36.704Z,596.00
2023-05-21T10:48:36.767Z,597.00
2023-05-21T10:49:36.825Z,599.00
2023-05-21T10:50:37.106Z,601.00
2023-05-21T10:51:36.936Z,603.00
2023-05-21T10:52:36.988Z,600.00
2023-05-21T10:53:37.053Z,603.00
2023-05-21T10:54:37.113Z,600.00
2023-05-21T10:55:37.179Z,606.00
2023-05-21T10:56:37.225Z,603.00
2023-05-21T10:57:37.271Z,602.00
2023-05-21T10:58:38.052Z,603.00
2023-05-21T10:59:37.373Z,604.00
2023-05-21T11:00:37.621Z,599.00
2023-05-21T11:01:38.231Z,598.00
2023-05-21T11:02:37.739Z,601.00
2023-05-21T11:03:38.147Z,607.00
2023-05-21T11:04:37.641Z,600.00
2023-05-21T11:05:37.716Z,606.00
2023-05-21T11:06:37.788Z,606.00
2023-05-21T11:07:37.809Z,601.00
2023-05-21T11:08:37.858Z,602.00
2023-05-21T11:09:37.894Z,607.00
2023-05-21T11:10:40.042Z,603.00
2023-05-21T11:11:38.025Z,608.00
2023-05-21T11:12:38.061Z,606.00
2023-05-21T11:13:38.104Z,603.00
2023-05-21T11:14:38.179Z,606.00
2023-05-21T11:15:39.204Z,606.00
2023-05-21T11:16:38.275Z,603.00
2023-05-21T11:17:38.382Z,606.00
2023-05-21T11:18:38.406Z,604.00
2023-05-21T11:19:40.360Z,603.00
2023-05-21T11:20:38.672Z,608.00
2023-05-21T11:21:38.607Z,605.00
2023-05-21T11:22:38.666Z,607.00
2023-05-21T11:23:38.728Z,604.00
2023-05-21T11:24:40.714Z,605.00
2023-05-21T11:25:38.842Z,608.00
2023-05-21T11:26:38.897Z,605.00
2023-05-21T11:27:38.965Z,604.00
2023-05-21T11:28:38.972Z,606.00
2023-05-21T11:29:39.015Z,607.00
2023-05-21T11:30:40.984Z,605.00
2023-05-21T11:31:39.368Z,606.00
2023-05-21T11:32:39.201Z,606.00
2023-05-21T11:33:39.198Z,605.00
2023-05-21T11:34:39.224Z,606.00
2023-05-21T11:35:40.196Z,606.00
2023-05-21T11:36:39.309Z,609.00
2023-05-21T11:37:39.340Z,606.00
2023-05-21T11:38:39.374Z,608.00
2023-05-21T11:39:39.430Z,612.00
2023-05-21T11:40:39.473Z,607.00
2023-05-21T11:41:39.533Z,609.00
2023-05-21T11:42:39.596Z,605.00
2023-05-21T11:43:39.650Z,611.00
2023-05-21T11:44:39.690Z,608.00
2023-05-21T11:45:39.768Z,605.00
2023-05-21T11:46:39.884Z,608.00
2023-05-21T11:47:39.938Z,608.00
2023-05-21T11:48:39.933Z,602.00
2023-05-21T11:49:40.015Z,608.00
2023-05-21T11:50:40.079Z,605.00
2023-05-21T11:51:40.122Z,611.00
2023-05-21T11:52:40.173Z,610.00
2023-05-21T11:53:41.109Z,609.00
2023-05-21T11:54:40.320Z,609.00
2023-05-21T11:55:40.367Z,612.00
2023-05-21T11:56:41.229Z,607.00
2023-05-21T11:57:40.525Z,610.00
2023-05-21T11:58:40.557Z,610.00
2023-05-21T11:59:40.629Z,608.00
2023-05-21T12:00:40.676Z,611.00
2023-05-21T12:01:41.238Z,608.00
2023-05-21T12:02:40.826Z,606.00
2023-05-21T12:03:40.890Z,611.00
2023-05-21T12:04:40.866Z,610.00
2023-05-21T12:05:42.760Z,603.00
2023-05-21T12:06:40.967Z,609.00
2023-05-21T12:07:41.035Z,611.00
2023-05-21T12:08:41.105Z,608.00
2023-05-21T12:09:41.149Z,607.00
2023-05-21T12:10:41.202Z,608.00
2023-05-21T12:11:41.258Z,611.00
2023-05-21T12:12:53.837Z,611.00
2023-05-21T12:13:42.320Z,611.00
2023-05-21T12:14:41.311Z,612.00
2023-05-21T12:15:41.311Z,609.00
2023-05-21T12:16:41.357Z,613.00
2023-05-21T12:17:41.370Z,611.00
2023-05-21T12:18:41.334Z,611.00
2023-05-21T12:19:41.327Z,608.00
2023-05-21T12:20:41.321Z,611.00
2023-05-21T12:21:41.333Z,611.00
2023-05-21T12:22:41.336Z,612.00
2023-05-21T12:23:41.333Z,608.00
2023-05-21T12:24:41.369Z,612.00
2023-05-21T12:25:41.386Z,613.00
2023-05-21T12:26:41.436Z,609.00
2023-05-21T12:27:41.486Z,614.00
2023-05-21T12:28:41.538Z,612.00
2023-05-21T12:29:43.199Z,611.00